• Join FlightAware (Why Join?)
  • Login
  • US Flag 
04:15AM EDT


 

Airport Tracker/Info


-or-


 

Live Flight TrackerFlight Track Log ✈ SWA542 ✈ 31-Oct-2013 ✈ KOAK - KSEA

Flight Track Log - Related Links

Times and Time Zones

All times are in EDT time to prevent confusion due to time zone crossing. See the SWA542 flight status page for this flight to view local times or setup timezone preferences in your user account.

Time Position Orientation Groundspeed Altitude Reporting Facility
EDT Latitude Longitude Course Direction KTS MPH feet Rate Location/Type
03:19PM 37.7706 -122.3181 310° West 201 231 2,900  Level Oakland Center
03:20PM 37.8081 -122.3767 309° West 211 243 4,700 2,640 Climbing Oakland Center
03:21PM 37.8583 -122.4139 330° Northwest 226 260 8,400 3,240 Climbing Oakland Center
03:22PM 37.9217 -122.4389 343° North 237 273 11,400 2,820 Climbing Oakland Center
03:23PM 38.0083 -122.4594 349° North 276 318 14,300 2,040 Climbing Oakland Center
03:24PM 38.1025 -122.4597 360° North 338 389 15,700 1,680 Climbing Oakland Center
03:25PM 38.2117 -122.4622 359° North 390 449 17,800 2,460 Climbing Oakland Center
03:26PM 38.3233 -122.4636 359° North 401 461 20,800 2,820 Climbing Oakland Center
03:27PM 38.4339 -122.4650 359° North 399 459 23,700 2,520 Climbing Oakland Center
03:28PM 38.5428 -122.4661 360° North 393 452 26,000 1,080 Climbing Oakland Center
03:29PM 38.6597 -122.4789 355° North 418 481 26,000  Level Oakland Center
03:30PM 38.7889 -122.4950 354° North 434 499 26,000 300 Level Oakland Center
03:31PM 38.9103 -122.5075 355° North 435 501 26,700 1,020 Climbing Oakland Center
03:32PM 39.0303 -122.5219 355° North 433 498 28,200 1,680 Climbing Oakland Center
03:33PM 39.1800 -122.5369 356° North 445 512 30,200 1,740 Climbing Oakland Center
03:34PM 39.2858 -122.5461 356° North 445 512 31,800 1,740 Climbing Oakland Center
03:35PM 39.4311 -122.5464 360° North 437 503 33,800 1,560 Climbing Oakland Center
03:36PM 39.5517 -122.5458 360° North 434 499 35,100 1,320 Climbing Oakland Center
03:37PM 39.6722 -122.5469 360° North 433 498 36,600 1,140 Climbing Oakland Center
03:38PM 39.7931 -122.5497 359° North 433 498 37,500 660 Climbing Oakland Center
03:39PM 39.9153 -122.5497 360° North 436 502 38,000 240 Climbing Oakland Center
03:40PM 40.0367 -122.5511 359° North 433 498 38,000  Level Oakland Center
03:41PM 40.1611 -122.5525 360° North 438 504 38,000  Level Oakland Center
03:42PM 40.2839 -122.5519 360° North 434 499 38,000  Level Oakland Center
03:43PM 40.4056 -122.5525 360° North 433 498 38,000  Level Oakland Center
03:44PM 40.5261 -122.5539 359° North 431 496 38,000  Level Oakland Center
03:45PM 40.6464 -122.5525 North 432 497 38,000  Level Oakland Center
03:46PM 40.7658 -122.5531 360° North 430 495 38,000  Level Oakland Center
03:47PM 40.9100 -122.5533 360° North 431 496 38,000  Level Oakland Center
03:48PM 41.0283 -122.5536 360° North 427 491 38,000  Level Oakland Center
03:49PM 41.1467 -122.5564 359° North 429 494 38,000  Level Oakland Center
03:50PM 41.2667 -122.5586 359° North 430 495 38,000  Level Oakland Center
03:51PM 41.3733 -122.5550 North 430 495 38,000  Level Oakland Center
03:52PM 41.4950 -122.5561 360° North 435 501 38,000  Level Oakland Center
03:53PM 41.5936 -122.5622 357° North 434 499 38,000  Level Seattle Center
03:54PM 41.7144 -122.5611 360° North 433 498 38,000  Level Seattle Center
03:55PM 41.8356 -122.5619 360° North 434 499 38,000  Level Seattle Center
03:56PM 41.9561 -122.5622 360° North 433 498 38,000  Level Seattle Center
03:57PM 42.0761 -122.5658 359° North 429 494 38,000  Level Seattle Center
03:58PM 42.1958 -122.5658 360° North 433 498 38,000  Level Seattle Center
03:59PM 42.3167 -122.5639 North 431 496 38,000  Level Seattle Center
04:00PM 42.4367 -122.5658 359° North 429 494 38,000  Level Seattle Center
04:01PM 42.5561 -122.5650 360° North 429 494 38,000  Level Seattle Center
04:02PM 42.7006 -122.5658 360° North 431 496 38,000  Level Seattle Center
04:03PM 42.8128 -122.5669 360° North 428 493 38,000  Level Seattle Center
04:04PM 42.9322 -122.5681 360° North 428 493 38,000  Level Seattle Center
04:05PM 43.0517 -122.5689 360° North 431 496 38,000  Level Seattle Center
04:06PM 43.1711 -122.5700 360° North 430 495 38,000  Level Seattle Center
04:07PM 43.2894 -122.5717 359° North 430 495 38,000  Level Seattle Center
04:08PM 43.4086 -122.5714 360° North 428 493 38,000  Level Seattle Center
04:09PM 43.5294 -122.5725 360° North 434 499 38,000  Level Seattle Center
04:10PM 43.6489 -122.5753 359° North 433 498 38,000  Level Seattle Center
04:12PM 43.7933 -122.5742 360° North 435 501 38,000  Level Seattle Center
04:13PM 43.9144 -122.5747 360° North 438 504 38,000  Level Seattle Center
04:14PM 44.0331 -122.5775 359° North 433 498 38,000  Level Seattle Center
04:15PM 44.1531 -122.5778 360° North 435 501 38,000  Level Seattle Center
04:16PM 44.2714 -122.5786 360° North 430 495 38,000  Level Seattle Center
04:17PM 44.3911 -122.5808 359° North 432 497 38,000  Level Seattle Center
04:18PM 44.5103 -122.5811 360° North 431 496 38,000  Level Seattle Center
04:19PM 44.6306 -122.5831 359° North 434 499 38,000  Level Seattle Center
04:20PM 44.7508 -122.5831 360° North 434 499 38,000  Level Seattle Center
04:21PM 44.8661 -122.5844 360° North 431 496 38,000  Level Seattle Center
04:22PM 45.0111 -122.5872 359° North 435 501 38,000  Level Seattle Center
04:23PM 45.1281 -122.5878 360° North 428 493 38,000  Level Seattle Center
04:24PM 45.2461 -122.5867 360° North 429 494 38,000  Level Seattle Center
04:25PM 45.3647 -122.5892 359° North 429 494 38,000  Level Seattle Center
04:26PM 45.4839 -122.5892 360° North 429 494 38,000  Level Seattle Center
04:27PM 45.6022 -122.5900 360° North 429 494 38,000  Level Seattle Center
04:28PM 45.7225 -122.5919 359° North 432 497 38,000  Level Seattle Center
04:29PM 45.8389 -122.6136 353° North 426 490 38,000 -300 Level Seattle Center
04:30PM 45.9539 -122.6414 350° North 423 487 37,400 -1,680 Descending Seattle Center
04:31PM 46.0706 -122.6728 349° North 425 489 34,600 -3,420 Descending Seattle Center
04:32PM 46.2106 -122.7014 352° North 427 491 30,500 -3,000 Descending Seattle Center
04:34PM 46.4261 -122.7283 355° North 417 480 25,600 -2,580 Descending Seattle Center
04:35PM 46.5533 -122.7314 359° North 389 448 22,700 -2,520 Descending Seattle Center
04:36PM 46.6700 -122.7353 359° North 360 414 20,100 -1,920 Descending Seattle Center
04:37PM 46.7511 -122.7403 358° North 347 399 18,900 -1,320 Descending Seattle Center
04:38PM 46.8242 -122.6947 23° Northeast 360 414 17,900 -1,140 Descending Seattle Center
04:38PM 46.8361 -122.6769 46° Northeast 392 451 17,700 -1,980 Descending Seattle Center
04:39PM 46.9189 -122.5839 38° Northeast 348 400 15,600 -1,860 Descending Seattle Center
04:40PM 47.0006 -122.5339 23° Northeast 312 359 14,000 -1,620 Descending Seattle Center
04:41PM 47.0806 -122.4992 16° North 301 346 12,400 -1,560 Descending Seattle Center
04:42PM 47.1575 -122.4856 North 295 339 11,000 -1,380 Descending Seattle Center
04:42PM 47.1628 -122.4847 North 298 343 11,000 -1,140 Level Seattle Center
04:43PM 47.2389 -122.4736 North 275 316 9,900 -1,140 Descending Seattle Center
04:43PM 47.2378 -122.4722 140° Southeast 273 314 9,900 -1,320 Level Seattle Center
04:44PM 47.3156 -122.4611 North 276 318 8,600 -1,320 Descending Seattle Center
04:44PM 47.3214 -122.4603 North 279 321 8,600 -900 Level Seattle Center
04:45PM 47.3872 -122.4544 North 253 291 7,700 -1,020 Descending Seattle Center
04:45PM 47.3933 -122.4531 North 263 303 7,600 -1,320 Descending Seattle Center
04:46PM 47.4614 -122.4539 360° North 246 283 6,300 -840 Descending Seattle Center
04:47PM 47.5278 -122.4550 359° North 239 275 6,000 -660 Descending Seattle Center
04:48PM 47.5875 -122.4561 359° North 226 260 5,100 -1,020 Descending Seattle Center
04:48PM 47.5908 -122.4550 13° North 228 262 5,000 -720 Descending Seattle Center
04:49PM 47.6461 -122.4403 10° North 210 242 4,300 -720 Descending Seattle Center
04:50PM 47.6475 -122.3672 88° East 185 213 3,700 -720 Descending Seattle Center
04:50PM 47.6469 -122.3564 94° East 188 216 3,600 -720 Descending Seattle Center
04:51PM 47.6122 -122.3242 148° Southeast 170 196 3,000 -540 Descending Seattle Center
04:51PM 47.6053 -122.3203 159° South 171 197 3,100 -600 Climbing Seattle Center
04:52PM 47.5639 -122.3181 178° South 161 185 2,400 -720 Descending Seattle Center
04:52PM 47.5608 -122.3169 166° South 165 190 2,400 -660 Level Seattle Center
04:53PM 47.5303 -122.3169 180° South 142 163 1,800 -840 Descending Seattle Center
04:53PM 47.5214 -122.3178 184° South 147 169 1,600 -840 Descending Seattle Center
04:54PM 47.4908 -122.3192 182° South 132 152 1,000 -840 Descending Seattle Center
04:54PM 47.4811 -122.3181 176° South 137 158 800 -480 Descending Seattle Center
04:55PM 47.4492 -122.3186 181° South 137 158 400 -420 Descending Seattle Center